sensor_id;sensor_type;location;lat;lon;timestamp;pressure;altitude;pressure_sealevel;temperature;humidity
75401;BME280;63974;47.538;18.972;2023-03-23T00:02:28;100140.88;;;6.38;66.14
75401;BME280;63974;47.538;18.972;2023-03-23T00:05:30;100137.06;;;6.42;66.06
75401;BME280;63974;47.538;18.972;2023-03-23T00:08:33;100135.00;;;6.46;65.70
75401;BME280;63974;47.538;18.972;2023-03-23T00:11:38;100132.13;;;6.49;65.58
75401;BME280;63974;47.538;18.972;2023-03-23T00:14:43;100132.25;;;6.47;65.71
75401;BME280;63974;47.538;18.972;2023-03-23T00:17:44;100123.28;;;6.51;65.60
75401;BME280;63974;47.538;18.972;2023-03-23T00:20:51;100129.00;;;6.45;65.43
75401;BME280;63974;47.538;18.972;2023-03-23T00:23:54;100129.63;;;6.39;65.58
75401;BME280;63974;47.538;18.972;2023-03-23T00:26:55;100128.34;;;6.26;65.42
75401;BME280;63974;47.538;18.972;2023-03-23T00:30:00;100130.78;;;6.00;66.27
75401;BME280;63974;47.538;18.972;2023-03-23T00:33:02;100125.50;;;6.02;66.64
75401;BME280;63974;47.538;18.972;2023-03-23T00:36:04;100122.13;;;6.19;66.25
75401;BME280;63974;47.538;18.972;2023-03-23T00:39:06;100123.31;;;6.24;66.32
75401;BME280;63974;47.538;18.972;2023-03-23T00:42:08;100123.03;;;6.27;66.40
75401;BME280;63974;47.538;18.972;2023-03-23T00:45:10;100123.31;;;6.24;66.59
75401;BME280;63974;47.538;18.972;2023-03-23T00:48:13;100117.41;;;6.14;66.46
75401;BME280;63974;47.538;18.972;2023-03-23T00:51:15;100119.19;;;6.14;66.34
75401;BME280;63974;47.538;18.972;2023-03-23T00:54:16;100114.69;;;6.16;66.22
75401;BME280;63974;47.538;18.972;2023-03-23T00:57:18;100122.84;;;6.11;66.12
75401;BME280;63974;47.538;18.972;2023-03-23T01:00:20;100109.59;;;6.06;66.29
75401;BME280;63974;47.538;18.972;2023-03-23T01:03:22;100112.25;;;6.14;66.28
75401;BME280;63974;47.538;18.972;2023-03-23T01:06:27;100108.50;;;6.09;66.18
75401;BME280;63974;47.538;18.972;2023-03-23T01:09:32;100107.75;;;5.99;66.50
75401;BME280;63974;47.538;18.972;2023-03-23T01:12:34;100106.44;;;5.85;66.79
75401;BME280;63974;47.538;18.972;2023-03-23T01:15:36;100106.88;;;5.81;66.73
75401;BME280;63974;47.538;18.972;2023-03-23T01:18:38;100105.38;;;5.88;66.85
75401;BME280;63974;47.538;18.972;2023-03-23T01:21:41;100101.81;;;5.89;66.47
75401;BME280;63974;47.538;18.972;2023-03-23T01:24:43;100101.81;;;5.89;66.47
75401;BME280;63974;47.538;18.972;2023-03-23T01:27:44;100102.38;;;5.83;66.76
75401;BME280;63974;47.538;18.972;2023-03-23T01:30:47;100101.88;;;5.79;66.78
75401;BME280;63974;47.538;18.972;2023-03-23T01:33:48;100098.25;;;5.63;67.25
75401;BME280;63974;47.538;18.972;2023-03-23T01:36:53;100102.03;;;5.68;66.85
75401;BME280;63974;47.538;18.972;2023-03-23T01:39:56;100112.81;;;5.54;67.07
75401;BME280;63974;47.538;18.972;2023-03-23T01:42:58;100104.25;;;5.54;67.07
75401;BME280;63974;47.538;18.972;2023-03-23T01:46:00;100102.78;;;5.51;67.21
75401;BME280;63974;47.538;18.972;2023-03-23T01:49:27;100108.06;;;5.50;67.32
75401;BME280;63974;47.538;18.972;2023-03-23T01:52:27;100106.72;;;5.46;67.21
75401;BME280;63974;47.538;18.972;2023-03-23T01:55:37;100105.25;;;5.43;67.65
75401;BME280;63974;47.538;18.972;2023-03-23T01:58:42;100107.53;;;5.46;67.29
75401;BME280;63974;47.538;18.972;2023-03-23T02:01:44;100110.91;;;5.47;67.20
75401;BME280;63974;47.538;18.972;2023-03-23T02:04:47;100104.59;;;5.32;67.47
75401;BME280;63974;47.538;18.972;2023-03-23T02:07:50;100111.38;;;5.33;67.61
75401;BME280;63974;47.538;18.972;2023-03-23T02:10:52;100107.16;;;5.32;67.75
75401;BME280;63974;47.538;18.972;2023-03-23T02:13:54;100112.03;;;5.35;67.56
75401;BME280;63974;47.538;18.972;2023-03-23T02:17:17;100102.44;;;5.37;67.33
75401;BME280;63974;47.538;18.972;2023-03-23T02:27:00;100111.16;;;5.17;67.76
75401;BME280;63974;47.538;18.972;2023-03-23T02:30:15;100114.13;;;5.12;67.80
75401;BME280;63974;47.538;18.972;2023-03-23T02:33:40;100117.63;;;5.21;67.70
75401;BME280;63974;47.538;18.972;2023-03-23T02:40:39;100113.75;;;4.98;68.22
75401;BME280;63974;47.538;18.972;2023-03-23T02:43:43;100118.63;;;4.82;68.57
75401;BME280;63974;47.538;18.972;2023-03-23T02:46:46;100123.66;;;4.83;68.28
75401;BME280;63974;47.538;18.972;2023-03-23T02:49:52;100118.09;;;4.88;68.29
75401;BME280;63974;47.538;18.972;2023-03-23T02:52:55;100116.75;;;4.93;67.95
75401;BME280;63974;47.538;18.972;2023-03-23T02:56:01;100121.75;;;4.85;67.79
75401;BME280;63974;47.538;18.972;2023-03-23T02:59:04;100124.88;;;4.89;67.89
75401;BME280;63974;47.538;18.972;2023-03-23T03:02:14;100116.63;;;4.85;68.09
75401;BME280;63974;47.538;18.972;2023-03-23T03:05:40;100118.78;;;4.90;68.00
75401;BME280;63974;47.538;18.972;2023-03-23T03:08:51;100119.31;;;4.93;67.97
75401;BME280;63974;47.538;18.972;2023-03-23T03:12:04;100130.69;;;4.81;68.02
75401;BME280;63974;47.538;18.972;2023-03-23T03:18:37;100128.00;;;4.64;67.98
75401;BME280;63974;47.538;18.972;2023-03-23T03:21:44;100122.31;;;4.60;68.10
75401;BME280;63974;47.538;18.972;2023-03-23T03:24:50;100128.13;;;4.62;68.52
75401;BME280;63974;47.538;18.972;2023-03-23T03:27:54;100128.25;;;4.61;68.45
75401;BME280;63974;47.538;18.972;2023-03-23T03:31:09;100124.31;;;4.38;69.18
75401;BME280;63974;47.538;18.972;2023-03-23T03:34:13;100128.63;;;4.37;69.45
75401;BME280;63974;47.538;18.972;2023-03-23T03:37:20;100122.00;;;4.35;69.32
75401;BME280;63974;47.538;18.972;2023-03-23T03:40:24;100125.94;;;4.39;69.39
75401;BME280;63974;47.538;18.972;2023-03-23T03:43:26;100125.69;;;4.51;68.97
75401;BME280;63974;47.538;18.972;2023-03-23T03:46:27;100120.25;;;4.54;68.81
75401;BME280;63974;47.538;18.972;2023-03-23T03:49:32;100117.97;;;4.61;68.31
75401;BME280;63974;47.538;18.972;2023-03-23T03:52:34;100117.84;;;4.53;68.29
75401;BME280;63974;47.538;18.972;2023-03-23T03:55:36;100119.88;;;4.40;68.61
75401;BME280;63974;47.538;18.972;2023-03-23T03:58:44;100122.56;;;4.38;68.64
75401;BME280;63974;47.538;18.972;2023-03-23T04:02:09;100119.19;;;4.38;68.64
75401;BME280;63974;47.538;18.972;2023-03-23T04:05:16;100119.97;;;4.38;68.60
75401;BME280;63974;47.538;18.972;2023-03-23T04:08:22;100124.19;;;4.39;68.97
75401;BME280;63974;47.538;18.972;2023-03-23T04:11:24;100125.53;;;4.43;69.14
75401;BME280;63974;47.538;18.972;2023-03-23T04:14:27;100121.59;;;4.49;68.40
75401;BME280;63974;47.538;18.972;2023-03-23T04:17:30;100118.31;;;4.19;68.36
75401;BME280;63974;47.538;18.972;2023-03-23T04:20:32;100124.56;;;4.16;68.88
75401;BME280;63974;47.538;18.972;2023-03-23T04:23:37;100129.25;;;4.11;68.68
75401;BME280;63974;47.538;18.972;2023-03-23T04:26:42;100126.97;;;4.18;68.55
75401;BME280;63974;47.538;18.972;2023-03-23T04:29:58;100123.31;;;4.11;68.83
75401;BME280;63974;47.538;18.972;2023-03-23T04:33:12;100119.81;;;4.12;68.77
75401;BME280;63974;47.538;18.972;2023-03-23T04:36:22;100114.13;;;4.18;68.68
75401;BME280;63974;47.538;18.972;2023-03-23T04:39:35;100111.16;;;4.13;68.82
75401;BME280;63974;47.538;18.972;2023-03-23T04:42:42;100112.22;;;4.10;68.89
75401;BME280;63974;47.538;18.972;2023-03-23T04:45:54;100112.50;;;4.17;68.78
75401;BME280;63974;47.538;18.972;2023-03-23T04:49:02;100111.03;;;4.24;68.46
75401;BME280;63974;47.538;18.972;2023-03-23T04:52:10;100114.16;;;4.27;68.05
75401;BME280;63974;47.538;18.972;2023-03-23T04:55:19;100114.56;;;4.32;67.92
75401;BME280;63974;47.538;18.972;2023-03-23T04:58:28;100118.91;;;4.41;67.69
75401;BME280;63974;47.538;18.972;2023-03-23T05:01:58;100111.06;;;4.52;67.36
75401;BME280;63974;47.538;18.972;2023-03-23T05:05:01;100114.88;;;4.57;67.26
75401;BME280;63974;47.538;18.972;2023-03-23T05:08:04;100119.19;;;4.66;67.13
75401;BME280;63974;47.538;18.972;2023-03-23T05:11:10;100111.59;;;4.74;67.55
75401;BME280;63974;47.538;18.972;2023-03-23T05:14:16;100116.50;;;4.87;67.27
75401;BME280;63974;47.538;18.972;2023-03-23T05:17:22;100114.44;;;5.00;66.63
75401;BME280;63974;47.538;18.972;2023-03-23T05:20:27;100117.16;;;4.89;66.86
75401;BME280;63974;47.538;18.972;2023-03-23T05:23:36;100114.56;;;4.98;66.55
75401;BME280;63974;47.538;18.972;2023-03-23T05:26:48;100122.13;;;5.09;66.08
75401;BME280;63974;47.538;18.972;2023-03-23T05:29:58;100127.41;;;5.08;66.08
75401;BME280;63974;47.538;18.972;2023-03-23T05:33:01;100128.38;;;4.97;66.62
75401;BME280;63974;47.538;18.972;2023-03-23T05:36:35;100128.34;;;5.16;66.19
75401;BME280;63974;47.538;18.972;2023-03-23T05:40:01;100129.78;;;5.38;65.84
75401;BME280;63974;47.538;18.972;2023-03-23T05:43:39;100133.25;;;5.56;65.92
75401;BME280;63974;47.538;18.972;2023-03-23T05:46:52;100133.59;;;5.70;66.64
75401;BME280;63974;47.538;18.972;2023-03-23T05:49:54;100129.34;;;5.88;66.26
75401;BME280;63974;47.538;18.972;2023-03-23T05:52:58;100122.38;;;5.98;66.36
75401;BME280;63974;47.538;18.972;2023-03-23T05:56:02;100134.75;;;6.22;65.74
75401;BME280;63974;47.538;18.972;2023-03-23T05:59:27;100136.22;;;6.42;65.56
75401;BME280;63974;47.538;18.972;2023-03-23T06:02:31;100136.91;;;6.61;65.65
75401;BME280;63974;47.538;18.972;2023-03-23T06:05:33;100133.53;;;6.78;65.88
75401;BME280;63974;47.538;18.972;2023-03-23T06:08:36;100142.34;;;6.93;65.28
75401;BME280;63974;47.538;18.972;2023-03-23T06:11:39;100136.97;;;7.04;65.12
75401;BME280;63974;47.538;18.972;2023-03-23T06:15:08;100139.50;;;7.21;64.68
75401;BME280;63974;47.538;18.972;2023-03-23T06:18:34;100142.91;;;7.47;64.81
75401;BME280;63974;47.538;18.972;2023-03-23T06:21:44;100141.53;;;7.61;65.52
75401;BME280;63974;47.538;18.972;2023-03-23T06:24:54;100139.16;;;7.75;65.14
75401;BME280;63974;47.538;18.972;2023-03-23T06:28:05;100147.47;;;7.87;65.42
75401;BME280;63974;47.538;18.972;2023-03-23T06:31:11;100149.34;;;8.10;65.32
75401;BME280;63974;47.538;18.972;2023-03-23T06:34:14;100146.03;;;8.26;64.63
75401;BME280;63974;47.538;18.972;2023-03-23T06:37:35;100153.50;;;8.45;64.21
75401;BME280;63974;47.538;18.972;2023-03-23T06:40:53;100157.13;;;8.60;64.19
75401;BME280;63974;47.538;18.972;2023-03-23T06:43:54;100149.03;;;8.78;64.32
75401;BME280;63974;47.538;18.972;2023-03-23T06:47:02;100156.31;;;8.99;65.80
75401;BME280;63974;47.538;18.972;2023-03-23T06:50:10;100159.09;;;9.13;64.27
75401;BME280;63974;47.538;18.972;2023-03-23T06:53:14;100161.66;;;9.29;62.60
75401;BME280;63974;47.538;18.972;2023-03-23T06:56:16;100168.09;;;9.49;61.98
75401;BME280;63974;47.538;18.972;2023-03-23T06:59:18;100163.72;;;9.66;61.52
75401;BME280;63974;47.538;18.972;2023-03-23T07:02:21;100165.41;;;9.89;62.20
75401;BME280;63974;47.538;18.972;2023-03-23T07:05:27;100173.34;;;10.04;61.60
75401;BME280;63974;47.538;18.972;2023-03-23T07:08:30;100174.25;;;10.19;61.34
75401;BME280;63974;47.538;18.972;2023-03-23T07:11:32;100177.22;;;10.38;61.48
75401;BME280;63974;47.538;18.972;2023-03-23T07:14:39;100176.81;;;10.57;61.50
75401;BME280;63974;47.538;18.972;2023-03-23T07:17:41;100179.78;;;10.77;60.99
75401;BME280;63974;47.538;18.972;2023-03-23T07:20:53;100178.16;;;10.98;60.93
75401;BME280;63974;47.538;18.972;2023-03-23T07:23:57;100178.31;;;11.19;60.51
75401;BME280;63974;47.538;18.972;2023-03-23T07:27:25;100175.75;;;11.33;59.60
75401;BME280;63974;47.538;18.972;2023-03-23T07:30:31;100175.44;;;11.51;60.05
75401;BME280;63974;47.538;18.972;2023-03-23T07:33:33;100180.41;;;11.75;59.87
75401;BME280;63974;47.538;18.972;2023-03-23T07:36:36;100176.91;;;11.97;59.20
75401;BME280;63974;47.538;18.972;2023-03-23T07:39:41;100177.88;;;12.10;57.47
75401;BME280;63974;47.538;18.972;2023-03-23T07:42:51;100192.22;;;12.35;54.83
75401;BME280;63974;47.538;18.972;2023-03-23T07:46:01;100184.22;;;12.72;53.31
75401;BME280;63974;47.538;18.972;2023-03-23T07:49:12;100192.31;;;12.98;52.82
75401;BME280;63974;47.538;18.972;2023-03-23T07:52:23;100186.44;;;13.11;52.47
75401;BME280;63974;47.538;18.972;2023-03-23T07:55:26;100187.91;;;13.20;52.49
75401;BME280;63974;47.538;18.972;2023-03-23T07:58:54;100188.75;;;13.47;51.95
75401;BME280;63974;47.538;18.972;2023-03-23T08:01:57;100195.38;;;13.77;51.29
75401;BME280;63974;47.538;18.972;2023-03-23T08:05:16;100196.75;;;14.07;50.56
75401;BME280;63974;47.538;18.972;2023-03-23T08:08:42;100193.03;;;14.23;49.59
75401;BME280;63974;47.538;18.972;2023-03-23T08:12:02;100196.94;;;14.40;49.16
75401;BME280;63974;47.538;18.972;2023-03-23T08:15:24;100189.59;;;14.63;48.87
75401;BME280;63974;47.538;18.972;2023-03-23T08:18:44;100192.63;;;14.66;49.17
75401;BME280;63974;47.538;18.972;2023-03-23T08:22:06;100193.44;;;14.93;48.64
75401;BME280;63974;47.538;18.972;2023-03-23T08:25:10;100198.09;;;14.97;48.83
75401;BME280;63974;47.538;18.972;2023-03-23T08:28:39;100191.06;;;15.04;48.33
75401;BME280;63974;47.538;18.972;2023-03-23T08:31:57;100193.88;;;15.22;47.62
75401;BME280;63974;47.538;18.972;2023-03-23T08:35:14;100192.72;;;15.51;46.41
75401;BME280;63974;47.538;18.972;2023-03-23T08:38:19;100192.72;;;15.44;46.58
75401;BME280;63974;47.538;18.972;2023-03-23T08:41:45;100199.34;;;15.73;46.81
75401;BME280;63974;47.538;18.972;2023-03-23T08:44:55;100193.84;;;15.87;46.59
75401;BME280;63974;47.538;18.972;2023-03-23T08:48:27;100189.38;;;16.13;45.39
75401;BME280;63974;47.538;18.972;2023-03-23T08:52:02;100187.97;;;16.04;44.94
75401;BME280;63974;47.538;18.972;2023-03-23T08:55:24;100193.94;;;16.31;45.46
75401;BME280;63974;47.538;18.972;2023-03-23T08:58:55;100196.94;;;16.34;44.76
75401;BME280;63974;47.538;18.972;2023-03-23T09:02:11;100196.06;;;16.53;44.69
75401;BME280;63974;47.538;18.972;2023-03-23T09:05:40;100191.13;;;16.76;44.44
75401;BME280;63974;47.538;18.972;2023-03-23T09:09:01;100191.25;;;16.88;43.92
75401;BME280;63974;47.538;18.972;2023-03-23T09:12:08;100189.09;;;17.09;42.95
75401;BME280;63974;47.538;18.972;2023-03-23T09:15:12;100177.66;;;17.28;42.47
75401;BME280;63974;47.538;18.972;2023-03-23T09:18:14;100179.06;;;17.55;42.74
75401;BME280;63974;47.538;18.972;2023-03-23T09:21:17;100182.22;;;17.33;43.48
75401;BME280;63974;47.538;18.972;2023-03-23T09:24:19;100181.66;;;17.31;42.70
75401;BME280;63974;47.538;18.972;2023-03-23T09:27:20;100172.47;;;17.46;41.22
75401;BME280;63974;47.538;18.972;2023-03-23T09:30:30;100177.31;;;17.67;40.62
75401;BME280;63974;47.538;18.972;2023-03-23T09:33:32;100176.31;;;17.86;39.79
75401;BME280;63974;47.538;18.972;2023-03-23T09:36:37;100187.03;;;18.02;38.54
75401;BME280;63974;47.538;18.972;2023-03-23T09:39:40;100175.50;;;18.03;38.46
75401;BME280;63974;47.538;18.972;2023-03-23T09:46:37;100181.66;;;18.33;38.22
75401;BME280;63974;47.538;18.972;2023-03-23T09:49:54;100178.41;;;18.67;37.41
75401;BME280;63974;47.538;18.972;2023-03-23T09:53:01;100163.41;;;18.68;36.52
75401;BME280;63974;47.538;18.972;2023-03-23T09:56:10;100159.47;;;18.88;36.17
75401;BME280;63974;47.538;18.972;2023-03-23T09:59:31;100163.38;;;18.97;35.58
75401;BME280;63974;47.538;18.972;2023-03-23T10:05:54;100151.56;;;19.29;35.83
75401;BME280;63974;47.538;18.972;2023-03-23T10:08:58;100143.75;;;19.46;34.64
75401;BME280;63974;47.538;18.972;2023-03-23T10:12:14;100144.09;;;19.26;34.22
75401;BME280;63974;47.538;18.972;2023-03-23T10:15:34;100140.22;;;19.17;34.09
75401;BME280;63974;47.538;18.972;2023-03-23T10:18:42;100136.38;;;19.13;34.17
75401;BME280;63974;47.538;18.972;2023-03-23T10:21:49;100125.41;;;18.93;33.92
75401;BME280;63974;47.538;18.972;2023-03-23T10:28:17;100131.63;;;19.56;33.91
75401;BME280;63974;47.538;18.972;2023-03-23T10:31:28;100129.47;;;19.53;34.29
75401;BME280;63974;47.538;18.972;2023-03-23T10:37:48;100120.78;;;19.41;34.96
75401;BME280;63974;47.538;18.972;2023-03-23T10:41:19;100120.38;;;19.84;32.61
75401;BME280;63974;47.538;18.972;2023-03-23T10:44:24;100115.53;;;19.81;33.66
75401;BME280;63974;47.538;18.972;2023-03-23T10:47:28;100103.47;;;19.96;33.41
75401;BME280;63974;47.538;18.972;2023-03-23T10:50:32;100108.84;;;19.62;34.22
75401;BME280;63974;47.538;18.972;2023-03-23T10:53:58;100099.50;;;19.82;34.09
75401;BME280;63974;47.538;18.972;2023-03-23T10:57:00;100096.59;;;20.07;33.63
75401;BME280;63974;47.538;18.972;2023-03-23T11:00:04;100091.16;;;20.25;32.30
75401;BME280;63974;47.538;18.972;2023-03-23T11:06:22;100090.38;;;20.41;31.64
75401;BME280;63974;47.538;18.972;2023-03-23T11:09:39;100076.81;;;20.48;31.47
75401;BME280;63974;47.538;18.972;2023-03-23T11:12:44;100071.88;;;20.52;31.18
75401;BME280;63974;47.538;18.972;2023-03-23T11:15:49;100073.38;;;19.92;32.18
75401;BME280;63974;47.538;18.972;2023-03-23T11:18:52;100067.34;;;20.36;32.10
75401;BME280;63974;47.538;18.972;2023-03-23T11:22:06;100068.75;;;20.55;30.96
75401;BME280;63974;47.538;18.972;2023-03-23T11:25:09;100054.84;;;20.43;31.36
75401;BME280;63974;47.538;18.972;2023-03-23T11:28:14;100055.16;;;20.47;31.12
75401;BME280;63974;47.538;18.972;2023-03-23T11:31:17;100046.69;;;20.61;31.07
75401;BME280;63974;47.538;18.972;2023-03-23T11:34:47;100058.44;;;20.53;31.49
75401;BME280;63974;47.538;18.972;2023-03-23T11:37:53;100053.59;;;21.11;30.04
75401;BME280;63974;47.538;18.972;2023-03-23T11:40:56;100052.47;;;21.45;29.79
75401;BME280;63974;47.538;18.972;2023-03-23T11:44:03;100049.69;;;20.97;30.88
75401;BME280;63974;47.538;18.972;2023-03-23T11:47:35;100040.28;;;20.57;30.32
75401;BME280;63974;47.538;18.972;2023-03-23T11:53:50;100033.69;;;21.63;30.13
75401;BME280;63974;47.538;18.972;2023-03-23T11:56:55;100026.53;;;22.07;29.24
75401;BME280;63974;47.538;18.972;2023-03-23T11:59:57;100016.38;;;22.25;28.84
75401;BME280;63974;47.538;18.972;2023-03-23T12:13:45;100016.16;;;21.36;30.48
75401;BME280;63974;47.538;18.972;2023-03-23T12:23:25;100010.75;;;21.26;30.09
75401;BME280;63974;47.538;18.972;2023-03-23T12:33:18;100013.06;;;22.08;29.64
75401;BME280;63974;47.538;18.972;2023-03-23T12:53:23;99981.03;;;22.36;29.06
75401;BME280;63974;47.538;18.972;2023-03-23T12:57:08;99975.88;;;22.20;30.18
75401;BME280;63974;47.538;18.972;2023-03-23T13:06:40;99964.88;;;21.53;30.82
75401;BME280;63974;47.538;18.972;2023-03-23T13:09:58;99966.38;;;21.71;30.64
75401;BME280;63974;47.538;18.972;2023-03-23T13:13:04;99969.22;;;21.64;30.65
75401;BME280;63974;47.538;18.972;2023-03-23T13:26:05;99952.38;;;21.06;32.14
75401;BME280;63974;47.538;18.972;2023-03-23T13:29:18;99948.44;;;20.87;33.31
75401;BME280;63974;47.538;18.972;2023-03-23T13:32:33;99956.59;;;20.69;32.55
75401;BME280;63974;47.538;18.972;2023-03-23T13:35:37;99952.41;;;20.89;32.80
75401;BME280;63974;47.538;18.972;2023-03-23T13:38:48;99947.41;;;20.88;32.45
75401;BME280;63974;47.538;18.972;2023-03-23T13:48:44;99932.41;;;20.39;31.93
75401;BME280;63974;47.538;18.972;2023-03-23T13:51:56;99937.72;;;20.77;32.27
75401;BME280;63974;47.538;18.972;2023-03-23T13:58:25;99934.09;;;21.21;31.08
75401;BME280;63974;47.538;18.972;2023-03-23T14:01:35;99930.22;;;21.50;30.74
75401;BME280;63974;47.538;18.972;2023-03-23T14:04:37;99933.59;;;21.45;30.25
75401;BME280;63974;47.538;18.972;2023-03-23T14:08:24;99926.75;;;21.49;30.20
75401;BME280;63974;47.538;18.972;2023-03-23T14:11:50;99931.66;;;21.84;29.53
75401;BME280;63974;47.538;18.972;2023-03-23T14:14:59;99929.19;;;22.04;29.04
75401;BME280;63974;47.538;18.972;2023-03-23T14:18:05;99930.00;;;22.04;28.89
75401;BME280;63974;47.538;18.972;2023-03-23T14:21:15;99926.38;;;22.15;28.51
75401;BME280;63974;47.538;18.972;2023-03-23T14:24:21;99924.38;;;21.96;28.57
75401;BME280;63974;47.538;18.972;2023-03-23T14:27:24;99929.47;;;21.76;29.34
75401;BME280;63974;47.538;18.972;2023-03-23T14:30:35;99932.16;;;21.59;29.97
75401;BME280;63974;47.538;18.972;2023-03-23T14:33:38;99931.69;;;21.41;30.03
75401;BME280;63974;47.538;18.972;2023-03-23T14:36:43;99931.56;;;21.31;30.30
75401;BME280;63974;47.538;18.972;2023-03-23T14:39:47;99932.41;;;21.58;30.01
75401;BME280;63974;47.538;18.972;2023-03-23T14:42:50;99926.56;;;21.56;30.32
75401;BME280;63974;47.538;18.972;2023-03-23T14:45:57;99924.38;;;21.69;30.32
75401;BME280;63974;47.538;18.972;2023-03-23T14:49:04;99922.09;;;21.56;30.38
75401;BME280;63974;47.538;18.972;2023-03-23T14:52:15;99920.97;;;21.52;30.60
75401;BME280;63974;47.538;18.972;2023-03-23T14:55:21;99916.88;;;21.40;31.17
75401;BME280;63974;47.538;18.972;2023-03-23T14:58:24;99911.63;;;21.18;32.10
75401;BME280;63974;47.538;18.972;2023-03-23T15:01:30;99917.00;;;21.07;32.48
75401;BME280;63974;47.538;18.972;2023-03-23T15:04:33;99914.28;;;20.80;31.26
75401;BME280;63974;47.538;18.972;2023-03-23T15:07:36;99922.19;;;20.80;31.55
75401;BME280;63974;47.538;18.972;2023-03-23T15:10:38;99923.97;;;20.75;31.74
75401;BME280;63974;47.538;18.972;2023-03-23T15:13:49;99917.69;;;20.43;32.81
75401;BME280;63974;47.538;18.972;2023-03-23T15:16:53;99916.97;;;20.31;32.22
75401;BME280;63974;47.538;18.972;2023-03-23T15:19:56;99914.44;;;20.20;32.70
75401;BME280;63974;47.538;18.972;2023-03-23T15:23:06;99919.00;;;19.96;33.47
75401;BME280;63974;47.538;18.972;2023-03-23T15:26:21;99916.13;;;19.98;33.13
75401;BME280;63974;47.538;18.972;2023-03-23T15:29:24;99913.81;;;19.85;33.64
75401;BME280;63974;47.538;18.972;2023-03-23T15:32:28;99914.13;;;19.60;34.32
75401;BME280;63974;47.538;18.972;2023-03-23T15:35:36;99911.97;;;19.57;34.49
75401;BME280;63974;47.538;18.972;2023-03-23T15:38:38;99919.59;;;19.42;34.51
75401;BME280;63974;47.538;18.972;2023-03-23T15:41:50;99921.06;;;19.50;34.85
75401;BME280;63974;47.538;18.972;2023-03-23T15:48:13;99918.38;;;19.33;35.81
75401;BME280;63974;47.538;18.972;2023-03-23T15:51:20;99915.44;;;19.18;35.91
75401;BME280;63974;47.538;18.972;2023-03-23T15:54:22;99911.63;;;19.14;35.97
75401;BME280;63974;47.538;18.972;2023-03-23T15:57:24;99911.09;;;19.01;36.73
75401;BME280;63974;47.538;18.972;2023-03-23T16:00:27;99916.63;;;18.88;37.00
75401;BME280;63974;47.538;18.972;2023-03-23T16:03:57;99919.47;;;18.63;37.61
75401;BME280;63974;47.538;18.972;2023-03-23T16:07:01;99917.66;;;18.52;37.33
75401;BME280;63974;47.538;18.972;2023-03-23T16:10:06;99919.72;;;18.39;37.98
75401;BME280;63974;47.538;18.972;2023-03-23T16:13:09;99926.88;;;18.20;38.25
75401;BME280;63974;47.538;18.972;2023-03-23T16:16:17;99916.41;;;18.02;39.28
75401;BME280;63974;47.538;18.972;2023-03-23T16:19:20;99931.81;;;17.99;39.39
75401;BME280;63974;47.538;18.972;2023-03-23T16:22:26;99929.06;;;17.83;40.04
75401;BME280;63974;47.538;18.972;2023-03-23T16:25:28;99934.72;;;17.68;40.12
75401;BME280;63974;47.538;18.972;2023-03-23T16:28:32;99934.31;;;17.53;40.82
75401;BME280;63974;47.538;18.972;2023-03-23T16:31:36;99941.75;;;17.38;40.96
75401;BME280;63974;47.538;18.972;2023-03-23T16:34:38;99938.47;;;17.25;41.09
75401;BME280;63974;47.538;18.972;2023-03-23T16:37:51;99946.88;;;17.15;41.67
75401;BME280;63974;47.538;18.972;2023-03-23T16:41:10;99948.19;;;17.06;41.31
75401;BME280;63974;47.538;18.972;2023-03-23T16:44:13;99938.16;;;16.97;41.78
75401;BME280;63974;47.538;18.972;2023-03-23T16:47:16;99944.66;;;16.94;41.76
75401;BME280;63974;47.538;18.972;2023-03-23T16:50:20;99937.53;;;16.83;41.62
75401;BME280;63974;47.538;18.972;2023-03-23T16:53:23;99936.44;;;16.73;41.64
75401;BME280;63974;47.538;18.972;2023-03-23T16:56:26;99932.84;;;16.67;41.88
75401;BME280;63974;47.538;18.972;2023-03-23T16:59:29;99941.03;;;16.53;42.02
75401;BME280;63974;47.538;18.972;2023-03-23T17:02:32;99931.00;;;16.50;41.38
75401;BME280;63974;47.538;18.972;2023-03-23T17:05:36;99930.81;;;16.45;41.82
75401;BME280;63974;47.538;18.972;2023-03-23T17:08:38;99936.72;;;16.34;42.23
75401;BME280;63974;47.538;18.972;2023-03-23T17:11:41;99944.06;;;16.25;42.20
75401;BME280;63974;47.538;18.972;2023-03-23T17:14:44;99943.50;;;16.17;42.69
75401;BME280;63974;47.538;18.972;2023-03-23T17:17:47;99944.00;;;16.07;42.82
75401;BME280;63974;47.538;18.972;2023-03-23T17:20:52;99930.59;;;15.91;43.05
75401;BME280;63974;47.538;18.972;2023-03-23T17:23:55;99946.91;;;15.93;42.98
75401;BME280;63974;47.538;18.972;2023-03-23T17:26:57;99944.31;;;15.86;42.92
75401;BME280;63974;47.538;18.972;2023-03-23T17:30:01;99950.97;;;15.89;42.72
75401;BME280;63974;47.538;18.972;2023-03-23T17:33:05;99953.97;;;15.86;42.95
75401;BME280;63974;47.538;18.972;2023-03-23T17:36:08;99950.44;;;15.74;43.42
75401;BME280;63974;47.538;18.972;2023-03-23T17:39:12;99962.56;;;15.62;43.97
75401;BME280;63974;47.538;18.972;2023-03-23T17:42:16;99973.72;;;15.51;44.14
75401;BME280;63974;47.538;18.972;2023-03-23T17:45:19;99974.72;;;15.44;44.87
75401;BME280;63974;47.538;18.972;2023-03-23T17:48:22;99980.22;;;15.36;44.83
75401;BME280;63974;47.538;18.972;2023-03-23T17:51:25;99971.13;;;15.25;45.05
75401;BME280;63974;47.538;18.972;2023-03-23T17:54:29;99981.44;;;15.20;45.15
75401;BME280;63974;47.538;18.972;2023-03-23T17:57:32;99979.22;;;15.17;45.30
75401;BME280;63974;47.538;18.972;2023-03-23T18:00:37;99985.69;;;15.02;48.47
75401;BME280;63974;47.538;18.972;2023-03-23T18:03:40;99983.91;;;14.76;48.87
75401;BME280;63974;47.538;18.972;2023-03-23T18:06:45;99998.41;;;14.59;49.44